DAL678 KBIS-KMSP
Flight info
| Callsign | DAL678 |
|---|---|
| Flight time | 0h 34m |
| Altitude | 35000 |
| Route | BIS TTAIL BAINY4 |
| Aircraft | A21N/M-SDE3FGHIRWY/LB1 |
Departure
| Time | 2026-04-25 15:13 |
|---|---|
| Airport | Bismarck Municipal Airport (KBIS) |
Arrival
| Time | 2026-04-25 15:48 |
|---|---|
| Airport | Minneapolis–Saint Paul International Airport / Wold–Chamberlain Field (KMSP) |
| Time | Latitude | Longitude | Altitude | Speed | Heading |
|---|---|---|---|---|---|
| 2026-04-25 15:04 | 46.77578 | -100.75769 | 1654 ft | 0 kts | 203° |
| 2026-04-25 15:08 | 46.77576 | -100.75772 | 1654 ft | 0 kts | 229° |
| 2026-04-25 15:08 | 46.77596 | -100.75787 | 1654 ft | 8 kts | 8° |
| 2026-04-25 15:08 | 46.77649 | -100.75738 | 1654 ft | 11 kts | 38° |
| 2026-04-25 15:09 | 46.77687 | -100.75684 | 1654 ft | 6 kts | 75° |
| 2026-04-25 15:09 | 46.77687 | -100.75665 | 1654 ft | 0 kts | 86° |
| 2026-04-25 15:09 | 46.77795 | -100.75753 | 1655 ft | 15 kts | 318° |
| 2026-04-25 15:10 | 46.77874 | -100.75855 | 1655 ft | 15 kts | 317° |
| 2026-04-25 15:10 | 46.77949 | -100.75962 | 1655 ft | 15 kts | 318° |
| 2026-04-25 15:10 | 46.78106 | -100.76171 | 1655 ft | 15 kts | 316° |
| 2026-04-25 15:11 | 46.78181 | -100.76273 | 1655 ft | 14 kts | 315° |
| 2026-04-25 15:11 | 46.78260 | -100.76367 | 1655 ft | 8 kts | 338° |
| 2026-04-25 15:11 | 46.78308 | -100.76313 | 1655 ft | 17 kts | 54° |
| 2026-04-25 15:12 | 46.78363 | -100.76163 | 1656 ft | 7 kts | 98° |
| 2026-04-25 15:12 | 46.78300 | -100.76052 | 1656 ft | 37 kts | 137° |
| 2026-04-25 15:12 | 46.77883 | -100.75508 | 1656 ft | 121 kts | 139° |
| 2026-04-25 15:12 | 46.77388 | -100.74838 | 1653 ft | 167 kts | 139° |
| 2026-04-25 15:13 | 46.76138 | -100.73105 | 2200 ft | 206 kts | 139° |
| 2026-04-25 15:13 | 46.73835 | -100.69855 | 3482 ft | 259 kts | 137° |
| 2026-04-25 15:13 | 46.72583 | -100.68030 | 4942 ft | 248 kts | 136° |
| 2026-04-25 15:14 | 46.71536 | -100.66215 | 6285 ft | 246 kts | 118° |
| 2026-04-25 15:14 | 46.71222 | -100.63759 | 7249 ft | 257 kts | 77° |
| 2026-04-25 15:14 | 46.71983 | -100.61483 | 8323 ft | 252 kts | 41° |
| 2026-04-25 15:14 | 46.73179 | -100.59581 | 9126 ft | 269 kts | 50° |
| 2026-04-25 15:15 | 46.73873 | -100.56981 | 9784 ft | 293 kts | 87° |
| 2026-04-25 15:15 | 46.73744 | -100.53966 | 10435 ft | 303 kts | 102° |
| 2026-04-25 15:15 | 46.73414 | -100.50868 | 10873 ft | 320 kts | 101° |
| 2026-04-25 15:15 | 46.73146 | -100.47589 | 11255 ft | 338 kts | 98° |
| 2026-04-25 15:16 | 46.72983 | -100.44059 | 11623 ft | 357 kts | 95° |
| 2026-04-25 15:16 | 46.72907 | -100.40393 | 12012 ft | 373 kts | 93° |
| 2026-04-25 15:16 | 46.72890 | -100.32741 | 13344 ft | 383 kts | 94° |
| 2026-04-25 15:17 | 46.72922 | -100.24930 | 14700 ft | 389 kts | 94° |
| 2026-04-25 15:17 | 46.72936 | -100.21010 | 15315 ft | 392 kts | 94° |
| 2026-04-25 15:17 | 46.72951 | -100.17020 | 15952 ft | 395 kts | 94° |
| 2026-04-25 15:18 | 46.72966 | -100.13071 | 16554 ft | 397 kts | 94° |
| 2026-04-25 15:18 | 46.72993 | -100.05004 | 17688 ft | 403 kts | 93° |
| 2026-04-25 15:18 | 46.73004 | -100.00883 | 18233 ft | 406 kts | 93° |
| 2026-04-25 15:19 | 46.73014 | -99.96938 | 18746 ft | 409 kts | 93° |
| 2026-04-25 15:19 | 46.73019 | -99.94180 | 19108 ft | 411 kts | 93° |
| 2026-04-25 15:19 | 46.73032 | -99.88652 | 19769 ft | 415 kts | 93° |
| 2026-04-25 15:19 | 46.73039 | -99.84417 | 20273 ft | 418 kts | 94° |
| 2026-04-25 15:20 | 46.73046 | -99.80214 | 20761 ft | 421 kts | 94° |
| 2026-04-25 15:20 | 46.73048 | -99.75916 | 21215 ft | 425 kts | 94° |
| 2026-04-25 15:20 | 46.73049 | -99.71639 | 21711 ft | 430 kts | 94° |
| 2026-04-25 15:20 | 46.73050 | -99.67243 | 22363 ft | 431 kts | 94° |
| 2026-04-25 15:21 | 46.73048 | -99.62862 | 22829 ft | 434 kts | 94° |
| 2026-04-25 15:21 | 46.73043 | -99.58493 | 23218 ft | 438 kts | 94° |
| 2026-04-25 15:21 | 46.73038 | -99.54016 | 23647 ft | 440 kts | 94° |
| 2026-04-25 15:21 | 46.73031 | -99.49563 | 24075 ft | 443 kts | 94° |
| 2026-04-25 15:22 | 46.73022 | -99.45062 | 24512 ft | 445 kts | 94° |
| 2026-04-25 15:22 | 46.73011 | -99.40569 | 24916 ft | 448 kts | 94° |
| 2026-04-25 15:22 | 46.72998 | -99.35992 | 25308 ft | 451 kts | 95° |
| 2026-04-25 15:22 | 46.72984 | -99.31412 | 25745 ft | 453 kts | 95° |
| 2026-04-25 15:23 | 46.72968 | -99.26795 | 26155 ft | 455 kts | 95° |
| 2026-04-25 15:23 | 46.72950 | -99.22218 | 26515 ft | 457 kts | 96° |
| 2026-04-25 15:23 | 46.72929 | -99.17548 | 26888 ft | 460 kts | 96° |
| 2026-04-25 15:23 | 46.72907 | -99.12923 | 27260 ft | 462 kts | 96° |
| 2026-04-25 15:24 | 46.72883 | -99.08227 | 27614 ft | 464 kts | 96° |
| 2026-04-25 15:24 | 46.72855 | -99.03561 | 27945 ft | 466 kts | 96° |
| 2026-04-25 15:24 | 46.72827 | -98.98833 | 28347 ft | 467 kts | 96° |
| 2026-04-25 15:24 | 46.72809 | -98.95708 | 28659 ft | 466 kts | 96° |
| 2026-04-25 15:25 | 46.72768 | -98.89462 | 29303 ft | 464 kts | 96° |
| 2026-04-25 15:25 | 46.72735 | -98.84761 | 29703 ft | 464 kts | 96° |
| 2026-04-25 15:25 | 46.72700 | -98.80094 | 30034 ft | 466 kts | 96° |
| 2026-04-25 15:25 | 46.72662 | -98.75351 | 30361 ft | 467 kts | 96° |
| 2026-04-25 15:26 | 46.72621 | -98.70657 | 30687 ft | 469 kts | 96° |
| 2026-04-25 15:26 | 46.72578 | -98.65885 | 30963 ft | 470 kts | 96° |
| 2026-04-25 15:26 | 46.72486 | -98.56398 | 31043 ft | 472 kts | 96° |
| 2026-04-25 15:27 | 46.72389 | -98.46838 | 31049 ft | 472 kts | 96° |
| 2026-04-25 15:28 | 46.72230 | -98.32722 | 31048 ft | 472 kts | 96° |
| 2026-04-25 15:28 | 46.72114 | -98.23217 | 31047 ft | 472 kts | 96° |
| 2026-04-25 15:29 | 46.71988 | -98.13689 | 31049 ft | 472 kts | 96° |
| 2026-04-25 15:29 | 46.71852 | -98.04109 | 31052 ft | 474 kts | 96° |
| 2026-04-25 15:30 | 46.71712 | -97.94536 | 31055 ft | 473 kts | 96° |
| 2026-04-25 15:30 | 46.70128 | -97.11018 | 31108 ft | 475 kts | 96° |
| 2026-04-25 15:31 | 46.69289 | -96.76063 | 31095 ft | 476 kts | 97° |
| 2026-04-25 15:31 | 46.68199 | -96.66684 | 31081 ft | 470 kts | 110° |
| 2026-04-25 15:32 | 46.65996 | -96.57831 | 31080 ft | 465 kts | 119° |
| 2026-04-25 15:32 | 46.63381 | -96.49217 | 31072 ft | 466 kts | 119° |
| 2026-04-25 15:33 | 46.59478 | -96.36295 | 31066 ft | 467 kts | 119° |
| 2026-04-25 15:33 | 46.56896 | -96.27682 | 31060 ft | 466 kts | 120° |
| 2026-04-25 15:34 | 46.27778 | -95.32432 | 31070 ft | 466 kts | 121° |
| 2026-04-25 15:34 | 45.98045 | -94.38564 | 31101 ft | 463 kts | 123° |
| 2026-04-25 15:35 | 45.94856 | -94.28827 | 30810 ft | 458 kts | 124° |
| 2026-04-25 15:35 | 45.93529 | -94.24753 | 30422 ft | 453 kts | 123° |
| 2026-04-25 15:35 | 45.86906 | -94.04459 | 28168 ft | 450 kts | 123° |
| 2026-04-25 15:36 | 45.73635 | -93.67174 | 25246 ft | 408 kts | 150° |
| 2026-04-25 15:36 | 45.71236 | -93.65348 | 24733 ft | 376 kts | 173° |
| 2026-04-25 15:36 | 45.66392 | -93.63696 | 23624 ft | 370 kts | 174° |
| 2026-04-25 15:37 | 45.26987 | -93.45601 | 15708 ft | 372 kts | 160° |
| 2026-04-25 15:37 | 45.13990 | -93.35753 | 12591 ft | 357 kts | 157° |
| 2026-04-25 15:37 | 45.11760 | -93.34522 | 11802 ft | 334 kts | 171° |
| 2026-04-25 15:37 | 45.09572 | -93.33656 | 11021 ft | 322 kts | 169° |
| 2026-04-25 15:38 | 45.07502 | -93.32664 | 10458 ft | 306 kts | 166° |
| 2026-04-25 15:38 | 45.05635 | -93.31352 | 10018 ft | 297 kts | 148° |
| 2026-04-25 15:38 | 45.04246 | -93.29235 | 9639 ft | 291 kts | 130° |
| 2026-04-25 15:38 | 45.03188 | -93.26849 | 9292 ft | 286 kts | 127° |
| 2026-04-25 15:39 | 45.02166 | -93.24432 | 8942 ft | 285 kts | 126° |
| 2026-04-25 15:39 | 45.01157 | -93.22047 | 8596 ft | 283 kts | 126° |
| 2026-04-25 15:39 | 45.00153 | -93.19694 | 8272 ft | 280 kts | 126° |
| 2026-04-25 15:39 | 44.99158 | -93.17368 | 8167 ft | 269 kts | 126° |
| 2026-04-25 15:40 | 44.98224 | -93.15189 | 8102 ft | 256 kts | 126° |
| 2026-04-25 15:40 | 44.97618 | -93.13776 | 8041 ft | 249 kts | 126° |
| 2026-04-25 15:40 | 44.96443 | -93.11050 | 7966 ft | 241 kts | 126° |
| 2026-04-25 15:40 | 44.95564 | -93.09038 | 7725 ft | 245 kts | 126° |
| 2026-04-25 15:41 | 44.94648 | -93.06960 | 7312 ft | 249 kts | 125° |
| 2026-04-25 15:41 | 44.93744 | -93.04909 | 6934 ft | 251 kts | 124° |
| 2026-04-25 15:41 | 44.92811 | -93.02786 | 6561 ft | 252 kts | 124° |
| 2026-04-25 15:41 | 44.91899 | -93.00705 | 6209 ft | 252 kts | 124° |
| 2026-04-25 15:42 | 44.90980 | -92.98612 | 5865 ft | 251 kts | 124° |
| 2026-04-25 15:42 | 44.89874 | -92.96767 | 5548 ft | 246 kts | 143° |
| 2026-04-25 15:42 | 44.88397 | -92.95591 | 5259 ft | 240 kts | 163° |
| 2026-04-25 15:42 | 44.86800 | -92.95170 | 4985 ft | 234 kts | 181° |
| 2026-04-25 15:43 | 44.85198 | -92.95478 | 4669 ft | 230 kts | 199° |
| 2026-04-25 15:43 | 44.83777 | -92.96444 | 4302 ft | 230 kts | 217° |
| 2026-04-25 15:43 | 44.82635 | -92.97966 | 4022 ft | 225 kts | 235° |
| 2026-04-25 15:43 | 44.81881 | -92.99866 | 3746 ft | 220 kts | 252° |
| 2026-04-25 15:44 | 44.81573 | -93.01919 | 3568 ft | 208 kts | 268° |
| 2026-04-25 15:44 | 44.81674 | -93.03889 | 3288 ft | 199 kts | 284° |
| 2026-04-25 15:44 | 44.82109 | -93.05616 | 3048 ft | 177 kts | 298° |
| 2026-04-25 15:44 | 44.82692 | -93.07026 | 2855 ft | 157 kts | 302° |
| 2026-04-25 15:45 | 44.83258 | -93.08265 | 2591 ft | 145 kts | 304° |
| 2026-04-25 15:45 | 44.83804 | -93.09389 | 2328 ft | 134 kts | 304° |
| 2026-04-25 15:45 | 44.84286 | -93.10459 | 2088 ft | 129 kts | 300° |
| 2026-04-25 15:45 | 44.84595 | -93.11197 | 1980 ft | 129 kts | 300° |
| 2026-04-25 15:46 | 44.85218 | -93.12639 | 1784 ft | 129 kts | 300° |
| 2026-04-25 15:46 | 44.85668 | -93.13728 | 1634 ft | 129 kts | 300° |
| 2026-04-25 15:46 | 44.86146 | -93.14818 | 1505 ft | 129 kts | 301° |
| 2026-04-25 15:46 | 44.86613 | -93.15891 | 1375 ft | 129 kts | 300° |
| 2026-04-25 15:47 | 44.87074 | -93.16961 | 1219 ft | 128 kts | 301° |
| 2026-04-25 15:47 | 44.87540 | -93.18047 | 1084 ft | 129 kts | 301° |
| 2026-04-25 15:47 | 44.88010 | -93.19127 | 893 ft | 129 kts | 300° |
| 2026-04-25 15:47 | 44.88457 | -93.20173 | 817 ft | 115 kts | 303° |
| 2026-04-25 15:48 | 44.88793 | -93.20942 | 825 ft | 66 kts | 302° |
| 2026-04-25 15:48 | 44.88891 | -93.21264 | 829 ft | 15 kts | 238° |
| 2026-04-25 15:48 | 44.88820 | -93.21317 | 828 ft | 10 kts | 142° |
| 2026-04-25 15:48 | 44.88750 | -93.21263 | 828 ft | 12 kts | 172° |
| 2026-04-25 15:49 | 44.88703 | -93.21276 | 827 ft | 0 kts | 195° |
| 2026-04-25 15:49 | 44.88695 | -93.21284 | 827 ft | 2 kts | 225° |
| 2026-04-25 15:49 | 44.88691 | -93.21289 | 827 ft | 0 kts | 217° |
| 2026-04-25 15:49 | 44.88667 | -93.21295 | 827 ft | 0 kts | 192° |
| 2026-04-25 15:50 | 44.88657 | -93.21298 | 827 ft | 2 kts | 193° |
| 2026-04-25 15:50 | 44.88640 | -93.21305 | 827 ft | 0 kts | 198° |